createdAt,value
2022-08-04T00:01:50.888Z,2.60
2022-08-04T00:04:34.733Z,3.43
2022-08-04T00:07:11.642Z,3.03
2022-08-04T00:09:49.133Z,3.97
2022-08-04T00:12:17.418Z,3.13
2022-08-04T00:14:49.172Z,4.50
2022-08-04T00:17:20.838Z,4.00
2022-08-04T00:19:49.104Z,3.17
2022-08-04T00:22:19.569Z,3.27
2022-08-04T00:24:46.445Z,2.70
2022-08-04T00:27:13.493Z,2.60
2022-08-04T00:29:40.260Z,2.70
2022-08-04T00:32:08.557Z,3.20
2022-08-04T00:34:36.783Z,3.33
2022-08-04T00:37:06.315Z,2.77
2022-08-04T00:39:33.665Z,3.47
2022-08-04T00:42:09.528Z,3.87
2022-08-04T00:45:09.279Z,3.50
2022-08-04T00:48:11.833Z,3.83
2022-08-04T00:50:46.145Z,3.67
2022-08-04T00:53:37.564Z,3.77
2022-08-04T00:56:23.260Z,3.20
2022-08-04T00:59:19.011Z,3.70
2022-08-04T01:02:00.464Z,3.70
2022-08-04T01:05:01.088Z,3.93
2022-08-04T01:08:15.301Z,3.60
2022-08-04T01:11:03.254Z,3.13
2022-08-04T01:13:59.644Z,3.10
2022-08-04T01:16:27.817Z,3.30
2022-08-04T01:19:17.024Z,3.50
2022-08-04T01:22:01.033Z,3.43
2022-08-04T01:24:39.619Z,3.73
2022-08-04T01:27:11.338Z,3.03
2022-08-04T01:29:47.214Z,3.27
2022-08-04T01:32:31.562Z,3.73
2022-08-04T01:35:46.695Z,3.90
2022-08-04T01:38:21.497Z,4.03
2022-08-04T01:40:54.155Z,3.30
2022-08-04T01:43:21.603Z,3.70
2022-08-04T01:45:57.789Z,3.30
2022-08-04T01:48:26.475Z,3.67
2022-08-04T01:50:56.295Z,3.43
2022-08-04T01:53:29.409Z,3.93
2022-08-04T01:55:57.351Z,3.47
2022-08-04T01:58:25.186Z,3.57
2022-08-04T02:01:02.513Z,3.30
2022-08-04T02:04:21.938Z,3.73
2022-08-04T02:06:48.207Z,3.70
2022-08-04T02:09:26.109Z,3.27
2022-08-04T02:12:04.189Z,3.80
2022-08-04T02:14:45.099Z,3.43
2022-08-04T02:17:38.696Z,3.37
2022-08-04T02:20:23.732Z,3.37
2022-08-04T02:22:59.917Z,3.50
2022-08-04T02:25:29.087Z,3.60
2022-08-04T02:28:01.184Z,3.30
2022-08-04T02:30:34.242Z,3.80
2022-08-04T02:33:06.793Z,3.70
2022-08-04T02:35:38.373Z,3.63
2022-08-04T02:38:32.455Z,3.83
2022-08-04T02:41:01.732Z,4.03
2022-08-04T02:43:51.264Z,3.70
2022-08-04T02:46:21.541Z,3.60
2022-08-04T02:48:50.527Z,4.37
2022-08-04T02:51:24.183Z,3.47
2022-08-04T02:53:54.183Z,4.30
2022-08-04T02:56:22.444Z,3.87
2022-08-04T02:58:53.305Z,3.70
2022-08-04T03:01:22.925Z,3.63
2022-08-04T03:04:24.994Z,3.93
2022-08-04T03:07:19.266Z,4.03
2022-08-04T03:09:56.303Z,3.67
2022-08-04T03:12:50.850Z,3.53
2022-08-04T03:15:48.264Z,3.27
2022-08-04T03:18:36.965Z,3.80
2022-08-04T03:21:50.318Z,3.60
2022-08-04T03:24:37.124Z,4.17
2022-08-04T03:27:34.044Z,4.20
2022-08-04T03:30:08.408Z,3.90
2022-08-04T03:33:06.181Z,4.13
2022-08-04T03:36:16.605Z,3.73
2022-08-04T03:39:08.882Z,4.10
2022-08-04T03:42:04.330Z,3.93
2022-08-04T03:44:42.262Z,3.77
2022-08-04T03:47:44.658Z,4.03
2022-08-04T03:50:27.968Z,3.77
2022-08-04T03:53:12.122Z,3.37
2022-08-04T03:55:42.304Z,3.97
2022-08-04T03:58:35.180Z,4.07
2022-08-04T04:01:23.514Z,4.33
2022-08-04T04:04:08.607Z,3.73
2022-08-04T04:06:41.559Z,3.80
2022-08-04T04:09:56.812Z,4.67
2022-08-04T04:12:38.592Z,4.10
2022-08-04T04:15:27.965Z,4.43
2022-08-04T04:18:33.421Z,4.50
2022-08-04T04:21:28.468Z,4.20
2022-08-04T04:24:15.402Z,4.00
2022-08-04T04:26:58.644Z,4.03
2022-08-04T04:29:30.213Z,4.07
2022-08-04T04:32:22.380Z,4.20
2022-08-04T04:35:04.374Z,3.53
2022-08-04T04:37:48.637Z,4.47
2022-08-04T04:40:34.236Z,3.70
2022-08-04T04:43:10.279Z,4.67
2022-08-04T04:46:07.879Z,4.20
2022-08-04T04:48:48.509Z,4.30
2022-08-04T04:51:33.451Z,4.33
2022-08-04T04:54:08.684Z,4.50
2022-08-04T04:56:43.883Z,4.77
2022-08-04T04:59:15.428Z,4.50
2022-08-04T05:02:07.580Z,4.73
2022-08-04T05:04:37.198Z,4.50
2022-08-04T05:07:28.593Z,4.77
2022-08-04T05:09:58.327Z,3.87
2022-08-04T05:13:05.235Z,4.10
2022-08-04T05:15:33.961Z,4.60
2022-08-04T05:18:04.129Z,3.97
2022-08-04T05:20:43.175Z,4.37
2022-08-04T05:23:17.019Z,4.20
2022-08-04T05:25:58.565Z,3.83
2022-08-04T05:28:45.526Z,4.30
2022-08-04T05:31:18.820Z,4.77
2022-08-04T05:33:54.327Z,4.47
2022-08-04T05:36:40.010Z,4.30
2022-08-04T05:39:13.157Z,4.30
2022-08-04T05:41:46.254Z,4.53
2022-08-04T05:44:20.017Z,4.23
2022-08-04T05:46:54.032Z,5.03
2022-08-04T05:49:23.378Z,3.97
2022-08-04T05:51:51.649Z,3.67
2022-08-04T05:54:20.930Z,4.60
2022-08-04T05:56:49.561Z,4.60
2022-08-04T05:59:18.540Z,4.17
2022-08-04T06:01:56.037Z,4.33
2022-08-04T06:04:35.271Z,5.20
2022-08-04T06:07:02.175Z,3.90
2022-08-04T06:09:29.952Z,4.50
2022-08-04T06:12:04.226Z,4.30
2022-08-04T06:14:43.896Z,4.23
2022-08-04T06:19:56.273Z,4.20
2022-08-04T06:20:17.886Z,4.50
2022-08-04T06:22:50.461Z,4.30
2022-08-04T06:25:20.782Z,4.07
2022-08-04T06:27:49.944Z,4.03
2022-08-04T06:30:19.228Z,4.10
2022-08-04T06:32:48.715Z,3.40
2022-08-04T06:35:19.501Z,4.53
2022-08-04T06:37:47.656Z,5.00
2022-08-04T06:40:29.343Z,4.33
2022-08-04T06:43:08.921Z,4.33
2022-08-04T06:45:39.774Z,4.47
2022-08-04T06:48:07.597Z,5.90
2022-08-04T06:51:29.345Z,4.63
2022-08-04T06:53:24.320Z,4.50
2022-08-04T06:55:52.144Z,4.57
2022-08-04T06:58:20.739Z,4.07
2022-08-04T07:00:48.484Z,3.90
2022-08-04T07:03:17.876Z,5.47
2022-08-04T07:05:47.195Z,4.60
2022-08-04T07:08:14.638Z,3.97
2022-08-04T07:10:41.768Z,4.60
2022-08-04T07:13:09.464Z,4.37
2022-08-04T07:15:38.877Z,4.07
2022-08-04T07:18:05.624Z,4.70
2022-08-04T07:20:36.148Z,4.30
2022-08-04T07:23:07.762Z,4.13
2022-08-04T07:25:58.628Z,4.07
2022-08-04T07:28:28.973Z,4.20
2022-08-04T07:30:57.487Z,4.03
2022-08-04T07:33:25.941Z,4.30
2022-08-04T07:36:05.174Z,3.50
2022-08-04T07:38:50.890Z,4.43
2022-08-04T07:41:40.627Z,4.13
2022-08-04T07:44:08.685Z,3.73
2022-08-04T07:46:36.947Z,3.63
2022-08-04T07:49:05.157Z,4.00
2022-08-04T07:51:33.278Z,4.43
2022-08-04T07:54:03.278Z,4.17
2022-08-04T07:56:31.393Z,2.90
2022-08-04T07:58:58.111Z,4.10
2022-08-04T08:01:25.016Z,2.60
2022-08-04T08:03:54.006Z,2.27
2022-08-04T08:06:32.606Z,3.73
2022-08-04T08:09:13.628Z,2.63
2022-08-04T08:12:37.544Z,3.80
2022-08-04T08:14:35.369Z,2.47
2022-08-04T08:17:04.045Z,4.47
2022-08-04T08:19:32.577Z,3.80
2022-08-04T08:22:00.757Z,4.10
2022-08-04T08:24:35.234Z,4.00
2022-08-04T08:27:06.773Z,4.17
2022-08-04T08:29:34.927Z,3.43
2022-08-04T08:32:08.177Z,3.00
2022-08-04T08:34:35.968Z,3.47
2022-08-04T08:37:12.331Z,3.47
2022-08-04T08:39:46.598Z,4.10
2022-08-04T08:42:31.441Z,3.70
2022-08-04T08:45:24.597Z,3.70
2022-08-04T08:48:29.083Z,3.70
2022-08-04T08:51:12.075Z,3.00
2022-08-04T08:54:03.261Z,3.00
2022-08-04T08:56:43.120Z,3.23
2022-08-04T08:59:38.053Z,2.17
2022-08-04T09:02:16.802Z,3.73
2022-08-04T09:05:05.067Z,2.33
2022-08-04T09:08:01.717Z,3.13
2022-08-04T09:10:33.806Z,3.37
2022-08-04T09:13:08.563Z,2.60
2022-08-04T09:16:27.707Z,2.23
2022-08-04T09:19:02.362Z,4.00
2022-08-04T09:21:51.219Z,2.93
2022-08-04T09:24:39.749Z,3.53
2022-08-04T09:27:24.406Z,2.07
2022-08-04T09:30:06.804Z,2.10
2022-08-04T09:32:39.121Z,3.70
2022-08-04T09:35:15.362Z,3.77
2022-08-04T09:37:54.490Z,3.43
2022-08-04T09:40:50.595Z,3.23
2022-08-04T09:43:59.095Z,2.33
2022-08-04T09:46:39.101Z,2.80
2022-08-04T09:49:22.669Z,3.30
2022-08-04T09:52:01.088Z,2.40
2022-08-04T09:55:00.432Z,3.13
2022-08-04T09:57:45.519Z,2.90
2022-08-04T10:00:16.754Z,3.40
2022-08-04T10:02:56.152Z,3.10
2022-08-04T10:05:28.501Z,3.27
2022-08-04T10:08:21.692Z,3.20
2022-08-04T10:11:03.783Z,3.73
2022-08-04T10:14:13.551Z,3.47
2022-08-04T10:16:47.605Z,2.67
2022-08-04T10:19:20.408Z,3.17
2022-08-04T10:22:30.000Z,3.70
2022-08-04T10:25:01.045Z,3.20
2022-08-04T10:27:34.439Z,2.73
2022-08-04T10:30:12.020Z,2.50
2022-08-04T10:32:44.258Z,2.20
2022-08-04T10:35:23.600Z,2.87
2022-08-04T10:38:13.206Z,3.70
2022-08-04T10:40:49.399Z,2.30
2022-08-04T10:43:29.561Z,3.30
2022-08-04T10:46:05.639Z,2.80
2022-08-04T10:48:57.148Z,3.40
2022-08-04T10:51:58.816Z,3.13
2022-08-04T10:54:49.632Z,2.40
2022-08-04T10:57:35.515Z,2.53
2022-08-04T11:00:04.928Z,2.83
2022-08-04T11:03:00.981Z,2.80
2022-08-04T11:05:43.883Z,2.17
2022-08-04T11:08:25.444Z,3.30
2022-08-04T11:11:19.257Z,2.10
2022-08-04T11:13:52.205Z,2.00
2022-08-04T11:16:27.661Z,3.00
2022-08-04T11:19:13.212Z,3.27
2022-08-04T11:21:44.937Z,2.13
2022-08-04T11:24:21.584Z,3.33
2022-08-04T11:27:00.685Z,2.07
2022-08-04T11:29:42.223Z,2.10
2022-08-04T11:32:26.344Z,3.43
2022-08-04T11:35:01.662Z,3.13
2022-08-04T11:37:46.541Z,2.90
2022-08-04T11:40:22.820Z,2.93
2022-08-04T11:42:57.604Z,2.90
2022-08-04T11:45:32.121Z,3.37
2022-08-04T11:48:05.764Z,3.43
2022-08-04T11:50:41.527Z,2.40
2022-08-04T11:53:10.779Z,2.30
2022-08-04T11:56:07.068Z,2.63
2022-08-04T11:58:26.049Z,3.10
2022-08-04T12:01:31.230Z,3.57
2022-08-04T12:04:26.800Z,3.00
2022-08-04T12:07:30.453Z,3.37
2022-08-04T12:10:40.911Z,3.03
2022-08-04T12:13:41.884Z,2.70
2022-08-04T12:16:22.357Z,2.57
2022-08-04T12:19:12.344Z,3.13
2022-08-04T12:21:53.005Z,2.60
2022-08-04T12:24:34.291Z,2.93
2022-08-04T12:27:10.789Z,2.97
2022-08-04T12:29:41.040Z,2.75
2022-08-04T12:32:13.628Z,2.50
2022-08-04T12:35:11.816Z,2.90
2022-08-04T12:38:02.642Z,3.17
2022-08-04T12:40:37.345Z,2.33
2022-08-04T12:43:22.655Z,4.37
2022-08-04T12:45:51.938Z,2.92
2022-08-04T12:48:21.479Z,3.35
2022-08-04T12:50:56.637Z,8.25
2022-08-04T12:53:32.068Z,3.15
2022-08-04T12:56:01.406Z,3.25
2022-08-04T12:58:42.601Z,3.50
2022-08-04T13:02:09.338Z,3.30
2022-08-04T13:04:29.207Z,3.20
2022-08-04T13:07:07.610Z,3.00
2022-08-04T13:09:37.253Z,3.20
2022-08-04T13:12:17.285Z,3.72
2022-08-04T13:14:47.987Z,3.35
2022-08-04T13:17:14.997Z,3.35
2022-08-04T13:19:47.465Z,3.10
2022-08-04T13:22:29.758Z,2.92
2022-08-04T13:26:40.723Z,2.97
2022-08-04T13:27:48.549Z,3.15
2022-08-04T13:30:22.821Z,3.33
2022-08-04T13:32:58.510Z,3.72
2022-08-04T13:35:54.545Z,3.05
2022-08-04T13:38:16.828Z,3.28
2022-08-04T13:40:44.601Z,2.90
2022-08-04T13:44:16.389Z,3.00
2022-08-04T13:46:33.597Z,2.80
2022-08-04T13:52:02.730Z,3.20
2022-08-04T13:54:42.385Z,3.40
2022-08-04T13:57:19.173Z,2.83
2022-08-04T13:59:52.601Z,3.27
2022-08-04T14:02:43.630Z,3.10
2022-08-04T14:05:33.897Z,3.47
2022-08-04T14:08:17.082Z,2.80
2022-08-04T14:10:54.868Z,2.77
2022-08-04T14:13:41.014Z,3.03
2022-08-04T14:16:17.517Z,3.43
2022-08-04T14:18:44.829Z,3.40
2022-08-04T14:21:14.209Z,3.00
2022-08-04T14:23:48.270Z,2.93
2022-08-04T14:26:15.644Z,3.10
2022-08-04T14:29:25.221Z,3.30
2022-08-04T14:31:30.988Z,3.10
2022-08-04T14:34:04.643Z,3.23
2022-08-04T14:37:13.064Z,6.00
2022-08-04T14:39:41.193Z,3.13
2022-08-04T14:42:08.299Z,3.10
2022-08-04T14:44:58.189Z,2.90
2022-08-04T14:47:52.361Z,2.70
2022-08-04T14:50:32.878Z,3.00
2022-08-04T14:53:22.340Z,2.73
2022-08-04T14:55:55.185Z,3.30
2022-08-04T14:58:34.087Z,3.60
2022-08-04T15:01:10.816Z,3.30
2022-08-04T15:03:52.363Z,3.30
2022-08-04T15:06:27.796Z,3.20
2022-08-04T15:08:57.544Z,3.00
2022-08-04T15:11:24.866Z,3.13
2022-08-04T15:13:56.138Z,3.23
2022-08-04T15:16:24.580Z,3.27
2022-08-04T15:18:54.636Z,2.90
2022-08-04T15:21:25.781Z,4.27
2022-08-04T15:23:52.566Z,4.33
2022-08-04T15:26:34.281Z,2.90
2022-08-04T15:29:10.149Z,3.60
2022-08-04T15:32:07.375Z,3.80
2022-08-04T15:34:47.256Z,2.83
2022-08-04T15:37:49.576Z,2.90
2022-08-04T15:40:32.798Z,3.10
2022-08-04T15:43:42.223Z,2.77
2022-08-04T15:46:42.888Z,2.83
2022-08-04T15:48:55.849Z,3.40
2022-08-04T15:51:30.345Z,3.17
2022-08-04T15:54:03.403Z,2.80
2022-08-04T15:56:30.934Z,5.20
2022-08-04T15:58:58.704Z,3.80
2022-08-04T16:01:28.513Z,3.50
2022-08-04T16:03:59.435Z,7.27
2022-08-04T16:06:29.354Z,5.60
2022-08-04T16:09:05.354Z,5.73
2022-08-04T16:11:40.028Z,4.57
2022-08-04T16:14:10.895Z,5.43
2022-08-04T16:16:38.407Z,5.80
2022-08-04T16:19:10.973Z,5.47
2022-08-04T16:21:52.994Z,3.50
2022-08-04T16:24:21.779Z,3.93
2022-08-04T16:26:55.188Z,3.60
2022-08-04T16:29:23.378Z,4.50
2022-08-04T16:32:05.542Z,3.40
2022-08-04T16:34:48.458Z,3.20
2022-08-04T16:37:18.800Z,3.37
2022-08-04T16:39:50.433Z,3.23
2022-08-04T16:42:34.248Z,3.10
2022-08-04T16:45:12.651Z,3.00
2022-08-04T16:47:48.450Z,3.60
2022-08-04T16:50:24.371Z,2.73
2022-08-04T16:52:52.875Z,3.43
2022-08-04T16:55:21.933Z,3.30
2022-08-04T16:57:58.671Z,2.97
2022-08-04T17:00:34.899Z,3.03
2022-08-04T17:03:05.794Z,3.80
2022-08-04T17:05:39.727Z,3.77
2022-08-04T17:10:55.440Z,3.03
2022-08-04T17:14:03.234Z,3.40
2022-08-04T17:16:17.746Z,3.47
2022-08-04T17:18:52.464Z,3.17
2022-08-04T17:21:25.269Z,3.83
2022-08-04T17:24:15.490Z,3.70
2022-08-04T17:26:45.454Z,3.20
2022-08-04T17:29:21.658Z,3.40
2022-08-04T17:31:48.450Z,3.53
2022-08-04T17:34:19.553Z,3.67
2022-08-04T17:36:48.025Z,3.10
2022-08-04T17:39:19.452Z,3.97
2022-08-04T17:41:49.087Z,3.60
2022-08-04T17:44:16.396Z,3.00
2022-08-04T17:49:52.418Z,3.43
2022-08-04T17:52:35.915Z,3.43
2022-08-04T17:55:13.571Z,3.90
2022-08-04T17:57:43.393Z,3.10
2022-08-04T18:00:19.942Z,3.13
2022-08-04T18:02:53.484Z,3.20
2022-08-04T18:05:54.098Z,3.37
2022-08-04T18:08:37.749Z,3.67
2022-08-04T18:11:03.122Z,3.60
2022-08-04T18:13:29.902Z,3.40
2022-08-04T18:16:22.317Z,3.60
2022-08-04T18:19:10.219Z,3.10
2022-08-04T18:21:46.403Z,3.27
2022-08-04T18:24:33.872Z,3.40
2022-08-04T18:27:01.768Z,3.73
2022-08-04T18:29:31.518Z,4.13
2022-08-04T18:32:00.319Z,3.63
2022-08-04T18:34:27.169Z,3.63
2022-08-04T18:36:59.224Z,3.23
2022-08-04T18:40:24.945Z,3.27
2022-08-04T18:42:14.896Z,3.47
2022-08-04T18:44:52.339Z,3.40
2022-08-04T18:47:54.566Z,3.03
2022-08-04T18:51:01.291Z,3.33
2022-08-04T18:53:01.050Z,3.53
2022-08-04T18:55:55.254Z,3.20
2022-08-04T18:58:27.488Z,3.43
2022-08-04T19:00:55.767Z,3.10
2022-08-04T19:03:23.397Z,3.43
2022-08-04T19:05:51.519Z,3.67
2022-08-04T19:08:33.652Z,3.43
2022-08-04T19:11:28.709Z,3.30
2022-08-04T19:13:54.862Z,3.20
2022-08-04T19:16:25.984Z,3.00
2022-08-04T19:18:52.660Z,3.10
2022-08-04T19:21:19.521Z,3.20
2022-08-04T19:24:30.649Z,3.27
2022-08-04T19:26:55.505Z,2.83
2022-08-04T19:29:22.263Z,6.57
2022-08-04T19:31:48.924Z,7.27
2022-08-04T19:34:17.951Z,3.90
2022-08-04T19:37:01.641Z,4.23
2022-08-04T19:39:31.357Z,4.10
2022-08-04T19:42:04.638Z,4.37
2022-08-04T19:44:33.007Z,4.27
2022-08-04T19:47:00.711Z,3.90
2022-08-04T19:50:05.114Z,3.80
2022-08-04T19:52:33.647Z,4.30
2022-08-04T19:55:01.142Z,4.10
2022-08-04T19:57:43.830Z,4.10
2022-08-04T20:00:14.333Z,3.97
2022-08-04T20:02:42.017Z,3.50
2022-08-04T20:05:09.431Z,4.23
2022-08-04T20:07:36.989Z,4.40
2022-08-04T20:10:06.231Z,4.83
2022-08-04T20:12:34.108Z,4.87
2022-08-04T20:15:01.355Z,5.07
2022-08-04T20:18:06.852Z,4.40
2022-08-04T20:20:16.727Z,3.37
2022-08-04T20:22:50.797Z,3.70
2022-08-04T20:25:36.680Z,3.60
2022-08-04T20:28:05.366Z,3.97
2022-08-04T20:30:33.436Z,3.40
2022-08-04T20:33:01.278Z,3.40
2022-08-04T20:35:30.996Z,3.90
2022-08-04T20:38:00.789Z,3.10
2022-08-04T20:40:29.085Z,3.30
2022-08-04T20:42:57.398Z,4.10
2022-08-04T20:45:55.713Z,3.10
2022-08-04T20:48:11.626Z,3.53
2022-08-04T20:50:38.245Z,3.50
2022-08-04T20:53:16.595Z,3.77
2022-08-04T20:55:54.976Z,3.70
2022-08-04T20:58:27.537Z,3.43
2022-08-04T21:00:55.448Z,3.90
2022-08-04T21:03:49.610Z,3.97
2022-08-04T21:06:09.110Z,4.90
2022-08-04T21:08:36.913Z,5.40
2022-08-04T21:11:06.685Z,5.20
2022-08-04T21:13:50.883Z,6.13
2022-08-04T21:16:53.927Z,5.23
2022-08-04T21:19:06.702Z,5.83
2022-08-04T21:21:40.786Z,5.90
2022-08-04T21:24:07.807Z,5.67
2022-08-04T21:26:35.512Z,5.77
2022-08-04T21:29:04.531Z,6.87
2022-08-04T21:34:39.236Z,6.60
2022-08-04T21:37:07.102Z,7.03
2022-08-04T21:39:50.104Z,7.23
2022-08-04T21:42:27.811Z,8.30
2022-08-04T21:44:56.697Z,7.70
2022-08-04T21:47:24.042Z,7.77
2022-08-04T21:49:56.017Z,7.47
2022-08-04T21:52:24.249Z,8.00
2022-08-04T21:54:54.778Z,8.67
2022-08-04T21:57:22.445Z,7.87
2022-08-04T21:59:51.889Z,8.27
2022-08-04T22:02:18.635Z,9.13
2022-08-04T22:04:45.557Z,9.13
2022-08-04T22:07:12.292Z,9.20
2022-08-04T22:10:00.358Z,9.00
2022-08-04T22:12:30.178Z,8.70
2022-08-04T22:14:59.703Z,8.47
2022-08-04T22:17:35.378Z,9.20
2022-08-04T22:20:04.351Z,7.67
2022-08-04T22:22:34.756Z,9.20
2022-08-04T22:25:12.409Z,9.27
2022-08-04T22:28:01.041Z,11.10
2022-08-04T22:30:33.214Z,10.17
2022-08-04T22:33:07.615Z,9.23
2022-08-04T22:35:43.787Z,6.67
2022-08-04T22:38:24.004Z,10.40
2022-08-04T22:41:07.193Z,10.87
2022-08-04T22:43:36.225Z,10.43
2022-08-04T22:46:09.348Z,10.03
2022-08-04T22:48:43.611Z,10.33
2022-08-04T22:51:13.001Z,9.10
2022-08-04T22:53:40.131Z,3.30
2022-08-04T22:56:38.048Z,9.70
2022-08-04T22:59:10.922Z,11.00
2022-08-04T23:01:58.679Z,10.33
2022-08-04T23:04:28.144Z,9.83
2022-08-04T23:06:54.962Z,10.43
2022-08-04T23:09:27.024Z,10.20
2022-08-04T23:12:25.143Z,9.90
2022-08-04T23:14:53.660Z,11.63
2022-08-04T23:17:22.136Z,10.27
2022-08-04T23:19:57.831Z,8.23
2022-08-04T23:22:37.175Z,11.10
2022-08-04T23:25:15.863Z,10.93
2022-08-04T23:27:48.282Z,9.90
2022-08-04T23:30:19.473Z,9.77
2022-08-04T23:32:46.175Z,10.23
2022-08-04T23:35:15.038Z,8.80
2022-08-04T23:37:56.246Z,6.50
2022-08-04T23:40:32.762Z,8.93
2022-08-04T23:43:16.885Z,7.23
2022-08-04T23:46:06.907Z,8.40
2022-08-04T23:48:32.859Z,8.87
2022-08-04T23:51:14.901Z,4.70
2022-08-04T23:54:01.801Z,8.97
2022-08-04T23:56:34.580Z,9.33
2022-08-04T23:59:03.403Z,7.43
